createdAt,value
2023-04-15T00:01:53.684Z,13.70
2023-04-15T00:04:21.099Z,16.50
2023-04-15T00:06:54.814Z,14.20
2023-04-15T00:09:22.058Z,9.60
2023-04-15T00:11:50.671Z,14.40
2023-04-15T00:14:17.769Z,11.60
2023-04-15T00:16:44.912Z,17.30
2023-04-15T00:19:12.335Z,13.40
2023-04-15T00:21:39.498Z,14.90
2023-04-15T00:24:06.626Z,16.20
2023-04-15T00:26:33.869Z,13.00
2023-04-15T00:29:01.292Z,14.50
2023-04-15T00:31:31.495Z,17.20
2023-04-15T00:33:58.669Z,14.60
2023-04-15T00:36:26.466Z,17.30
2023-04-15T00:38:54.172Z,14.70
2023-04-15T00:41:21.461Z,18.70
2023-04-15T00:43:48.930Z,19.80
2023-04-15T00:46:17.793Z,20.80
2023-04-15T00:48:45.773Z,14.30
2023-04-15T00:51:13.975Z,15.20
2023-04-15T00:53:41.249Z,14.60
2023-04-15T00:56:08.838Z,12.00
2023-04-15T00:58:37.012Z,15.50
2023-04-15T01:01:04.840Z,13.30
2023-04-15T01:03:32.170Z,15.80
2023-04-15T01:06:02.977Z,16.10
2023-04-15T01:08:31.832Z,15.90
2023-04-15T01:11:03.659Z,11.50
2023-04-15T01:13:31.599Z,9.90
2023-04-15T01:15:58.768Z,11.00
2023-04-15T01:18:26.312Z,11.00
2023-04-15T01:20:53.817Z,14.00
2023-04-15T01:23:24.517Z,9.50
2023-04-15T01:25:52.703Z,10.50
2023-04-15T01:28:20.488Z,7.50
2023-04-15T01:30:47.565Z,8.80
2023-04-15T01:33:16.141Z,15.30
2023-04-15T01:35:44.586Z,11.60
2023-04-15T01:38:12.526Z,9.60
2023-04-15T01:40:39.761Z,17.40
2023-04-15T01:43:06.974Z,9.40
2023-04-15T01:45:34.094Z,12.80
2023-04-15T01:48:04.517Z,11.20
2023-04-15T01:50:31.637Z,19.40
2023-04-15T01:52:58.790Z,21.30
2023-04-15T01:55:26.248Z,24.30
2023-04-15T01:57:53.454Z,16.90
2023-04-15T02:00:22.418Z,15.90
2023-04-15T02:02:49.777Z,13.10
2023-04-15T02:05:17.136Z,12.70
2023-04-15T02:07:48.596Z,14.60
2023-04-15T02:10:16.907Z,19.20
2023-04-15T02:12:44.146Z,15.30
2023-04-15T02:15:11.802Z,13.00
2023-04-15T02:17:39.133Z,9.50
2023-04-15T02:20:10.920Z,14.30
2023-04-15T02:22:38.321Z,10.40
2023-04-15T02:25:06.250Z,10.70
2023-04-15T02:27:33.419Z,10.30
2023-04-15T02:30:00.717Z,12.90
2023-04-15T02:32:29.069Z,8.30
2023-04-15T02:34:56.411Z,9.80
2023-04-15T02:37:24.834Z,9.70
2023-04-15T02:39:51.957Z,13.20
2023-04-15T02:42:21.726Z,14.40
2023-04-15T02:44:49.764Z,11.90
2023-04-15T02:47:17.503Z,15.70
2023-04-15T02:49:44.593Z,10.20
2023-04-15T02:52:11.789Z,10.50
2023-04-15T02:54:38.854Z,15.90
2023-04-15T02:57:06.962Z,13.20
2023-04-15T02:59:34.372Z,16.70
2023-04-15T03:02:39.545Z,16.00
2023-04-15T03:05:07.800Z,15.40
2023-04-15T03:07:35.158Z,11.30
2023-04-15T03:10:02.935Z,13.70
2023-04-15T03:12:30.537Z,11.80
2023-04-15T03:14:58.204Z,11.40
2023-04-15T03:17:32.541Z,14.20
2023-04-15T03:20:00.057Z,14.80
2023-04-15T03:22:27.641Z,12.40
2023-04-15T03:24:55.067Z,10.60
2023-04-15T03:27:22.323Z,11.30
2023-04-15T03:29:49.474Z,10.80
2023-04-15T03:32:18.353Z,15.40
2023-04-15T03:34:45.687Z,11.60
2023-04-15T03:37:12.823Z,10.30
2023-04-15T03:39:40.054Z,13.60
2023-04-15T03:42:07.227Z,13.30
2023-04-15T03:44:34.211Z,9.40
2023-04-15T03:47:01.504Z,13.10
2023-04-15T03:49:28.673Z,10.40
2023-04-15T03:51:55.944Z,10.30
2023-04-15T03:54:23.055Z,11.80
2023-04-15T03:56:50.241Z,9.20
2023-04-15T03:59:17.365Z,11.00
2023-04-15T04:01:44.581Z,11.50
2023-04-15T04:04:11.674Z,13.30
2023-04-15T04:06:39.382Z,14.20
2023-04-15T04:09:06.519Z,9.20
2023-04-15T04:11:33.680Z,10.30
2023-04-15T04:14:00.920Z,15.90
2023-04-15T04:16:28.131Z,19.00
2023-04-15T04:18:55.508Z,19.70
2023-04-15T04:21:22.641Z,35.20
2023-04-15T04:23:49.944Z,19.20
2023-04-15T04:26:17.055Z,27.50
2023-04-15T04:28:44.132Z,17.20
2023-04-15T04:31:11.904Z,22.80
2023-04-15T04:33:39.051Z,14.00
2023-04-15T04:36:06.523Z,26.40
2023-04-15T04:38:33.697Z,21.50
2023-04-15T04:41:01.049Z,43.70
2023-04-15T04:43:28.237Z,25.00
2023-04-15T04:45:55.373Z,27.20
2023-04-15T04:48:23.030Z,17.60
2023-04-15T04:50:50.279Z,12.50
2023-04-15T04:53:18.172Z,11.10
2023-04-15T04:55:45.245Z,12.50
2023-04-15T04:58:12.660Z,12.70
2023-04-15T05:00:40.956Z,10.90
2023-04-15T05:03:08.256Z,11.10
2023-04-15T05:05:37.054Z,10.90
2023-04-15T05:08:04.280Z,10.10
2023-04-15T05:10:31.676Z,10.10
2023-04-15T05:12:58.833Z,14.90
2023-04-15T05:15:25.902Z,11.60
2023-04-15T05:17:53.101Z,13.10
2023-04-15T05:20:20.294Z,18.00
2023-04-15T05:22:47.463Z,20.00
2023-04-15T05:25:14.661Z,15.10
2023-04-15T05:27:42.254Z,13.60
2023-04-15T05:30:11.019Z,45.80
2023-04-15T05:32:39.274Z,109.60
2023-04-15T05:35:08.192Z,45.10
2023-04-15T05:37:35.364Z,17.50
2023-04-15T05:40:02.560Z,12.40
2023-04-15T05:42:29.702Z,19.80
2023-04-15T05:44:56.828Z,15.80
2023-04-15T05:47:24.033Z,11.00
2023-04-15T05:49:51.523Z,11.10
2023-04-15T05:52:18.675Z,10.80
2023-04-15T05:54:45.763Z,13.40
2023-04-15T05:57:12.870Z,9.40
2023-04-15T05:59:40.007Z,11.10
2023-04-15T06:02:07.651Z,11.80
2023-04-15T06:04:34.942Z,13.90
2023-04-15T06:07:02.196Z,23.10
2023-04-15T06:09:29.319Z,22.90
2023-04-15T06:11:57.782Z,28.40
2023-04-15T06:14:24.983Z,21.40
2023-04-15T06:16:52.425Z,23.60
2023-04-15T06:19:19.574Z,23.70
2023-04-15T06:21:46.761Z,18.70
2023-04-15T06:24:13.965Z,20.00
2023-04-15T06:26:41.072Z,20.90
2023-04-15T06:29:08.058Z,19.40
2023-04-15T06:31:35.201Z,20.50
2023-04-15T06:34:02.444Z,25.60
2023-04-15T06:36:29.609Z,19.90
2023-04-15T06:38:57.708Z,16.30
2023-04-15T06:41:25.116Z,19.60
2023-04-15T06:43:52.169Z,19.80
2023-04-15T06:46:19.282Z,33.10
2023-04-15T06:48:46.398Z,64.30
2023-04-15T06:51:13.623Z,33.50
2023-04-15T06:53:42.294Z,21.50
2023-04-15T06:56:09.813Z,21.60
2023-04-15T06:58:37.194Z,51.90
2023-04-15T07:01:04.624Z,31.80
2023-04-15T07:03:33.039Z,20.30
2023-04-15T07:06:01.538Z,22.90
2023-04-15T07:08:28.559Z,33.90
2023-04-15T07:10:55.644Z,23.30
2023-04-15T07:13:22.727Z,30.90
2023-04-15T07:15:49.829Z,24.20
2023-04-15T07:18:17.003Z,20.20
2023-04-15T07:20:44.256Z,14.30
2023-04-15T07:23:11.412Z,18.00
2023-04-15T07:25:38.501Z,29.70
2023-04-15T07:28:05.816Z,27.30
2023-04-15T07:30:33.276Z,25.30
2023-04-15T07:33:00.515Z,22.00
2023-04-15T07:35:27.706Z,21.90
2023-04-15T07:37:54.907Z,30.30
2023-04-15T07:40:22.546Z,25.00
2023-04-15T07:42:49.930Z,26.30
2023-04-15T07:45:17.423Z,19.70
2023-04-15T07:47:44.637Z,19.50
2023-04-15T07:50:11.869Z,22.60
2023-04-15T07:52:42.053Z,14.80
2023-04-15T07:55:09.791Z,16.90
2023-04-15T07:57:37.672Z,31.10
2023-04-15T08:00:05.877Z,22.70
2023-04-15T08:02:40.654Z,16.40
2023-04-15T08:05:08.300Z,27.20
2023-04-15T08:07:37.886Z,36.70
2023-04-15T08:10:05.813Z,24.00
2023-04-15T08:12:32.961Z,23.70
2023-04-15T08:15:00.908Z,27.70
2023-04-15T08:17:28.478Z,24.70
2023-04-15T08:19:55.626Z,19.60
2023-04-15T08:22:22.745Z,29.70
2023-04-15T08:24:49.892Z,28.50
2023-04-15T08:27:17.585Z,31.90
2023-04-15T08:29:45.813Z,24.70
2023-04-15T08:32:13.106Z,22.80
2023-04-15T08:34:40.239Z,27.20
2023-04-15T08:37:07.355Z,23.60
2023-04-15T08:39:34.438Z,22.50
2023-04-15T08:42:03.670Z,21.20
2023-04-15T08:44:33.968Z,23.50
2023-04-15T08:47:03.049Z,36.10
2023-04-15T08:49:30.775Z,39.10
2023-04-15T08:52:01.605Z,31.90
2023-04-15T08:54:29.018Z,27.60
2023-04-15T08:56:58.060Z,25.00
2023-04-15T08:59:25.295Z,31.20
2023-04-15T09:01:53.728Z,19.90
2023-04-15T09:04:21.073Z,25.40
2023-04-15T09:06:48.308Z,17.70
2023-04-15T09:09:15.475Z,22.50
2023-04-15T09:11:42.989Z,44.50
2023-04-15T09:14:10.099Z,39.40
2023-04-15T09:16:59.042Z,23.10
2023-04-15T09:19:27.251Z,28.90
2023-04-15T09:21:58.901Z,33.50
2023-04-15T09:24:36.239Z,30.80
2023-04-15T09:27:03.735Z,28.90
2023-04-15T09:29:31.583Z,28.40
2023-04-15T09:32:10.232Z,20.10
2023-04-15T09:34:38.182Z,18.30
2023-04-15T09:37:07.406Z,28.00
2023-04-15T09:39:47.598Z,22.30
2023-04-15T09:42:14.704Z,19.90
2023-04-15T09:44:41.834Z,25.60
2023-04-15T09:47:09.017Z,35.30
2023-04-15T09:49:36.289Z,38.50
2023-04-15T09:52:05.654Z,53.10
2023-04-15T09:54:38.503Z,45.70
2023-04-15T09:57:10.384Z,34.20
2023-04-15T09:59:37.891Z,19.10
2023-04-15T10:02:07.312Z,20.60
2023-04-15T10:04:37.664Z,20.50
2023-04-15T10:07:06.515Z,34.80
2023-04-15T10:09:35.922Z,21.60
2023-04-15T10:12:06.387Z,26.00
2023-04-15T10:14:38.796Z,19.20
2023-04-15T10:17:07.948Z,20.30
2023-04-15T10:19:38.061Z,27.20
2023-04-15T10:22:06.004Z,16.30
2023-04-15T10:24:33.661Z,18.40
2023-04-15T10:27:03.857Z,27.50
2023-04-15T10:29:31.486Z,32.00
2023-04-15T10:32:03.047Z,21.20
2023-04-15T10:34:31.412Z,20.90
2023-04-15T10:37:03.830Z,25.00
2023-04-15T10:39:37.450Z,19.70
2023-04-15T10:42:11.981Z,23.60
2023-04-15T10:44:41.969Z,24.40
2023-04-15T10:47:18.715Z,19.70
2023-04-15T10:49:52.689Z,24.70
2023-04-15T10:52:25.989Z,22.70
2023-04-15T10:55:11.271Z,19.10
2023-04-15T10:57:40.135Z,20.20
2023-04-15T11:00:18.173Z,24.20
2023-04-15T11:02:52.178Z,24.50
2023-04-15T11:05:20.884Z,20.00
2023-04-15T11:07:51.001Z,26.90
2023-04-15T11:10:18.037Z,48.00
2023-04-15T11:12:46.024Z,41.50
2023-04-15T11:15:25.532Z,37.70
2023-04-15T11:17:53.029Z,44.60
2023-04-15T11:20:20.299Z,34.80
2023-04-15T11:23:08.023Z,32.70
2023-04-15T11:25:42.939Z,23.50
2023-04-15T11:28:12.109Z,27.60
2023-04-15T11:30:40.180Z,22.20
2023-04-15T11:33:09.336Z,32.50
2023-04-15T11:35:36.925Z,25.00
2023-04-15T11:38:05.621Z,21.10
2023-04-15T11:40:35.801Z,28.70
2023-04-15T11:43:09.994Z,19.30
2023-04-15T11:45:53.033Z,16.70
2023-04-15T11:48:22.754Z,10.80
2023-04-15T11:50:55.430Z,17.30
2023-04-15T11:53:23.731Z,12.30
2023-04-15T11:55:53.102Z,16.30
2023-04-15T11:58:22.732Z,20.20
2023-04-15T12:00:55.890Z,19.30
2023-04-15T12:03:27.969Z,25.10
2023-04-15T12:06:06.343Z,15.20
2023-04-15T12:08:54.185Z,10.40
2023-04-15T12:11:27.487Z,9.40
2023-04-15T12:13:57.970Z,12.40
2023-04-15T12:16:25.741Z,26.40
2023-04-15T12:18:56.175Z,19.90
2023-04-15T12:21:24.862Z,14.80
2023-04-15T12:23:58.375Z,16.90
2023-04-15T12:26:46.035Z,11.30
2023-04-15T12:29:14.922Z,10.50
2023-04-15T12:31:55.312Z,10.40
2023-04-15T12:34:31.650Z,8.40
2023-04-15T12:37:00.159Z,10.40
2023-04-15T12:39:30.699Z,14.50
2023-04-15T12:41:59.409Z,29.80
2023-04-15T12:44:27.279Z,23.80
2023-04-15T12:46:54.612Z,25.60
2023-04-15T12:49:23.113Z,21.80
2023-04-15T12:51:52.121Z,24.40
2023-04-15T12:54:19.816Z,34.70
2023-04-15T12:56:48.334Z,44.90
2023-04-15T12:59:17.922Z,40.40
2023-04-15T13:01:46.671Z,29.40
2023-04-15T13:04:14.124Z,20.60
2023-04-15T13:06:41.572Z,8.70
2023-04-15T13:09:08.764Z,17.70
2023-04-15T13:11:36.653Z,14.20
2023-04-15T13:14:06.129Z,20.40
2023-04-15T13:16:34.191Z,36.20
2023-04-15T13:19:02.675Z,33.50
2023-04-15T13:21:31.342Z,38.00
2023-04-15T13:23:58.449Z,17.70
2023-04-15T13:26:25.522Z,19.40
2023-04-15T13:28:52.677Z,49.30
2023-04-15T13:31:19.954Z,62.20
2023-04-15T13:33:47.270Z,20.50
2023-04-15T13:36:14.460Z,10.60
2023-04-15T13:38:41.659Z,8.80
2023-04-15T13:41:08.774Z,10.70
2023-04-15T13:43:35.882Z,19.00
2023-04-15T13:46:03.069Z,18.40
2023-04-15T13:48:30.190Z,15.20
2023-04-15T13:50:57.406Z,52.10
2023-04-15T13:53:38.473Z,17.60
2023-04-15T13:56:09.634Z,10.50
2023-04-15T13:58:38.245Z,12.10
2023-04-15T14:01:07.090Z,47.00
2023-04-15T14:03:37.010Z,44.20
2023-04-15T14:06:05.327Z,32.30
2023-04-15T14:08:32.823Z,40.50
2023-04-15T14:11:00.020Z,23.30
2023-04-15T14:13:27.160Z,20.60
2023-04-15T14:15:54.345Z,15.40
2023-04-15T14:18:21.540Z,16.50
2023-04-15T14:20:48.748Z,11.10
2023-04-15T14:23:15.888Z,8.90
2023-04-15T14:25:43.609Z,8.70
2023-04-15T14:28:11.946Z,9.20
2023-04-15T14:30:39.192Z,9.40
2023-04-15T14:33:06.326Z,7.20
2023-04-15T14:35:33.364Z,19.70
2023-04-15T14:38:00.519Z,11.70
2023-04-15T14:40:27.676Z,17.50
2023-04-15T14:42:54.695Z,19.40
2023-04-15T14:45:21.835Z,24.40
2023-04-15T14:47:49.097Z,13.00
2023-04-15T14:50:17.256Z,7.80
2023-04-15T14:52:44.374Z,12.80
2023-04-15T14:55:12.608Z,8.60
2023-04-15T14:57:41.744Z,7.60
2023-04-15T15:00:13.748Z,13.70
2023-04-15T15:02:43.842Z,6.40
2023-04-15T15:05:12.318Z,11.80
2023-04-15T15:07:41.169Z,7.20
2023-04-15T15:10:08.817Z,6.90
2023-04-15T15:12:36.441Z,7.60
2023-04-15T15:15:12.254Z,5.80
2023-04-15T15:17:39.728Z,5.80
2023-04-15T15:20:07.882Z,7.50
2023-04-15T15:22:34.955Z,11.00
2023-04-15T15:25:02.246Z,13.40
2023-04-15T15:27:29.501Z,14.90
2023-04-15T15:29:56.883Z,7.00
2023-04-15T15:32:24.137Z,26.90
2023-04-15T15:34:51.688Z,16.40
2023-04-15T15:37:18.768Z,20.50
2023-04-15T15:39:45.918Z,12.20
2023-04-15T15:42:13.122Z,13.60
2023-04-15T15:44:40.264Z,19.60
2023-04-15T15:47:07.421Z,14.40
2023-04-15T15:49:34.702Z,19.00
2023-04-15T15:52:01.759Z,17.90
2023-04-15T15:54:29.343Z,16.60
2023-04-15T15:56:57.662Z,22.80
2023-04-15T15:59:25.819Z,10.40
2023-04-15T16:01:53.140Z,5.30
2023-04-15T16:04:20.598Z,13.40
2023-04-15T16:06:48.464Z,5.80
2023-04-15T16:09:16.081Z,6.20
2023-04-15T16:11:44.919Z,5.40
2023-04-15T16:14:12.195Z,6.50
2023-04-15T16:16:39.686Z,8.40
2023-04-15T16:19:06.940Z,12.20
2023-04-15T16:21:34.862Z,10.70
2023-04-15T16:24:02.309Z,6.40
2023-04-15T16:26:29.458Z,10.50
2023-04-15T16:28:56.618Z,6.20
2023-04-15T16:31:23.817Z,17.60
2023-04-15T16:33:51.110Z,10.70
2023-04-15T16:36:18.232Z,8.80
2023-04-15T16:38:48.458Z,21.80
2023-04-15T16:41:15.930Z,10.90
2023-04-15T16:43:43.136Z,53.90
2023-04-15T16:46:10.329Z,18.40
2023-04-15T16:48:37.702Z,12.00
2023-04-15T16:51:04.937Z,9.30
2023-04-15T16:53:32.104Z,10.80
2023-04-15T16:55:59.236Z,5.70
2023-04-15T16:58:26.609Z,5.40
2023-04-15T17:00:53.832Z,8.80
2023-04-15T17:03:21.089Z,13.40
2023-04-15T17:05:48.331Z,14.10
2023-04-15T17:08:15.468Z,12.30
2023-04-15T17:10:42.594Z,8.30
2023-04-15T17:13:09.775Z,4.80
2023-04-15T17:15:37.052Z,8.00
2023-04-15T17:18:05.149Z,8.80
2023-04-15T17:20:32.253Z,8.60
2023-04-15T17:23:00.512Z,9.40
2023-04-15T17:25:27.692Z,9.90
2023-04-15T17:27:54.809Z,42.40
2023-04-15T17:30:21.901Z,79.10
2023-04-15T17:32:49.372Z,30.20
2023-04-15T17:35:16.547Z,80.80
2023-04-15T17:37:43.731Z,55.30
2023-04-15T17:40:11.471Z,34.60
2023-04-15T17:42:38.812Z,38.10
2023-04-15T17:45:06.623Z,21.60
2023-04-15T17:47:33.851Z,25.10
2023-04-15T17:50:01.072Z,31.70
2023-04-15T17:52:28.242Z,47.30
2023-04-15T17:54:55.915Z,43.30
2023-04-15T17:57:23.146Z,48.00
2023-04-15T17:59:50.541Z,62.40
2023-04-15T18:02:17.930Z,29.20
2023-04-15T18:04:45.364Z,41.20
2023-04-15T18:07:12.724Z,93.60
2023-04-15T18:09:40.066Z,65.70
2023-04-15T18:12:09.006Z,105.10
2023-04-15T18:14:36.815Z,42.10
2023-04-15T18:17:04.015Z,26.60
2023-04-15T18:19:31.816Z,22.20
2023-04-15T18:22:00.562Z,33.20
2023-04-15T18:24:28.311Z,40.40
2023-04-15T18:26:56.639Z,26.50
2023-04-15T18:29:23.844Z,27.40
2023-04-15T18:31:51.933Z,29.40
2023-04-15T18:34:19.081Z,14.30
2023-04-15T18:36:46.505Z,28.80
2023-04-15T18:39:13.634Z,27.40
2023-04-15T18:41:40.779Z,27.30
2023-04-15T18:44:07.973Z,26.90
2023-04-15T18:46:35.457Z,34.90
2023-04-15T18:49:02.779Z,41.40
2023-04-15T18:51:30.205Z,27.70
2023-04-15T18:53:57.362Z,28.10
2023-04-15T18:56:24.508Z,36.50
2023-04-15T18:59:27.749Z,17.80
2023-04-15T19:01:39.532Z,8.70
2023-04-15T19:04:06.712Z,24.10
2023-04-15T19:06:33.906Z,24.20
2023-04-15T19:09:01.228Z,17.80
2023-04-15T19:11:28.466Z,16.80
2023-04-15T19:13:55.718Z,35.50
2023-04-15T19:16:23.119Z,14.50
2023-04-15T19:18:50.296Z,9.60
2023-04-15T19:21:17.577Z,14.90
2023-04-15T19:23:44.722Z,17.90
2023-04-15T19:26:12.229Z,12.20
2023-04-15T19:28:39.534Z,19.00
2023-04-15T19:31:06.906Z,25.20
2023-04-15T19:33:34.224Z,8.40
2023-04-15T19:36:04.413Z,31.20
2023-04-15T19:38:32.967Z,22.90
2023-04-15T19:41:00.401Z,22.90
2023-04-15T19:43:27.516Z,9.20
2023-04-15T19:45:54.964Z,8.40
2023-04-15T19:48:23.169Z,12.70
2023-04-15T19:50:50.358Z,21.00
2023-04-15T19:53:17.763Z,9.40
2023-04-15T19:55:44.992Z,20.10
2023-04-15T19:58:12.122Z,18.30
2023-04-15T20:00:39.188Z,13.80
2023-04-15T20:03:06.514Z,25.90
2023-04-15T20:05:33.886Z,15.50
2023-04-15T20:08:01.668Z,9.60
2023-04-15T20:10:29.834Z,8.70
2023-04-15T20:12:57.210Z,10.80
2023-04-15T20:15:24.384Z,9.60
2023-04-15T20:17:51.720Z,7.90
2023-04-15T20:20:19.273Z,9.10
2023-04-15T20:22:46.553Z,15.40
2023-04-15T20:25:13.805Z,14.00
2023-04-15T20:27:40.955Z,13.40
2023-04-15T20:30:08.630Z,14.70
2023-04-15T20:32:36.387Z,11.70
2023-04-15T20:35:04.880Z,11.70
2023-04-15T20:37:33.608Z,16.00
2023-04-15T20:40:01.753Z,14.00
2023-04-15T20:42:34.484Z,9.50
2023-04-15T20:45:02.276Z,8.40
2023-04-15T20:47:30.072Z,14.10
2023-04-15T20:49:57.270Z,15.80
2023-04-15T20:52:24.470Z,20.90
2023-04-15T20:54:51.708Z,13.60
2023-04-15T20:57:20.395Z,18.10
2023-04-15T20:59:47.829Z,24.10
2023-04-15T21:02:15.290Z,15.70
2023-04-15T21:04:44.980Z,13.20
2023-04-15T21:07:12.183Z,10.10
2023-04-15T21:09:41.503Z,8.70
2023-04-15T21:12:09.516Z,9.20
2023-04-15T21:14:37.122Z,7.00
2023-04-15T21:17:09.371Z,15.60
2023-04-15T21:19:38.323Z,8.40
2023-04-15T21:22:05.495Z,13.90
2023-04-15T21:24:32.634Z,11.00
2023-04-15T21:26:59.702Z,16.30
2023-04-15T21:29:26.881Z,15.70
2023-04-15T21:31:54.014Z,11.80
2023-04-15T21:34:21.136Z,6.80
2023-04-15T21:36:48.311Z,10.70
2023-04-15T21:39:15.571Z,8.30
2023-04-15T21:41:42.742Z,9.70
2023-04-15T21:44:09.904Z,6.50
2023-04-15T21:46:37.310Z,5.40
2023-04-15T21:49:07.190Z,6.30
2023-04-15T21:51:34.479Z,5.90
2023-04-15T21:54:01.590Z,5.50
2023-04-15T21:56:30.115Z,9.60
2023-04-15T21:58:57.690Z,6.50
2023-04-15T22:01:25.802Z,11.70
2023-04-15T22:03:53.508Z,9.60
2023-04-15T22:06:21.271Z,12.40
2023-04-15T22:08:56.777Z,15.70
2023-04-15T22:11:29.711Z,15.20
2023-04-15T22:13:57.939Z,11.20
2023-04-15T22:16:26.543Z,14.70
2023-04-15T22:18:54.573Z,16.00
2023-04-15T22:21:21.747Z,20.30
2023-04-15T22:23:49.605Z,11.30
2023-04-15T22:26:16.970Z,12.60
2023-04-15T22:28:44.219Z,12.80
2023-04-15T22:31:11.650Z,7.90
2023-04-15T22:33:38.997Z,9.20
2023-04-15T22:36:06.410Z,10.10
2023-04-15T22:38:33.639Z,6.10
2023-04-15T22:41:00.829Z,7.50
2023-04-15T22:43:28.065Z,13.10
2023-04-15T22:45:55.419Z,6.70
2023-04-15T22:48:23.135Z,28.20
2023-04-15T22:50:50.537Z,16.50
2023-04-15T22:53:17.922Z,24.60
2023-04-15T22:55:48.621Z,13.20
2023-04-15T22:58:17.319Z,8.80
2023-04-15T23:00:45.196Z,11.60
2023-04-15T23:03:12.428Z,18.70
2023-04-15T23:05:42.723Z,10.60
2023-04-15T23:08:09.971Z,8.30
2023-04-15T23:10:40.053Z,7.90
2023-04-15T23:13:07.106Z,12.10
2023-04-15T23:15:34.359Z,9.30
2023-04-15T23:18:02.344Z,5.70
2023-04-15T23:20:29.457Z,6.50
2023-04-15T23:22:56.538Z,6.60
2023-04-15T23:25:23.910Z,4.70
2023-04-15T23:27:51.052Z,4.90
2023-04-15T23:30:18.226Z,6.20
2023-04-15T23:32:45.672Z,5.40
2023-04-15T23:35:12.890Z,9.80
2023-04-15T23:37:40.056Z,8.20
2023-04-15T23:40:07.830Z,6.20
2023-04-15T23:42:34.953Z,5.10
2023-04-15T23:45:02.063Z,14.70
2023-04-15T23:47:29.284Z,15.40
2023-04-15T23:49:56.596Z,11.20
2023-04-15T23:52:24.003Z,9.30
2023-04-15T23:54:51.155Z,9.80
2023-04-15T23:57:18.949Z,6.10
2023-04-15T23:59:46.468Z,9.30
